Time;durP1;ratioP1;P1;durP2;ratioP2;P2;SDS_P1;SDS_P2;PMS_P1;PMS_P2;Temp;Humidity;BMP_temperature;BMP_pressure;BME280_temperature;BME280_humidity;BME280_pressure;Samples;Min_cycle;Max_cycle;Signal;HPM_P1;HPM_P2
2022/12/31 00:01:18;;;;;;;38.03;5.70;;;10.10;99.90;;;;;;5113063;28;20043;-84
2022/12/31 00:03:44;;;;;;;26.83;4.70;;;10.10;99.90;;;;;;5113075;28;20047;-84
2022/12/31 00:06:19;;;;;;;40.22;6.38;;;10.10;99.90;;;;;;5113024;28;20059;-84
2022/12/31 00:08:46;;;;;;;47.22;6.45;;;10.00;99.90;;;;;;5113085;28;20051;-84
2022/12/31 00:11:12;;;;;;;36.35;6.63;;;10.00;99.90;;;;;;5112893;28;20384;-83
2022/12/31 00:13:38;;;;;;;41.35;5.32;;;10.10;99.90;;;;;;5113102;28;20094;-84
2022/12/31 00:16:16;;;;;;;42.38;6.53;;;10.20;99.90;;;;;;5112864;28;20134;-84
2022/12/31 00:18:44;;;;;;;40.22;6.13;;;10.10;99.90;;;;;;5112928;28;20039;-84
2022/12/31 00:21:10;;;;;;;38.60;5.97;;;10.10;99.90;;;;;;5114365;28;20062;-84
2022/12/31 00:23:36;;;;;;;39.05;5.43;;;10.20;99.90;;;;;;5112579;28;20083;-84
2022/12/31 00:26:07;;;;;;;50.03;8.45;;;10.20;99.90;;;;;;5113990;28;20092;-84
2022/12/31 00:28:35;;;;;;;37.70;8.15;;;10.20;99.90;;;;;;5114016;28;20047;-84
2022/12/31 00:31:08;;;;;;;36.97;7.25;;;10.10;99.90;;;;;;5112765;28;20394;-84
2022/12/31 00:33:34;;;;;;;38.67;6.55;;;10.10;99.90;;;;;;5112585;28;20040;-84
2022/12/31 00:36:05;;;;;;;48.42;7.38;;;10.20;99.90;;;;;;5112567;28;20046;-84
2022/12/31 00:38:31;;;;;;;45.47;6.80;;;10.20;99.90;;;;;;5112925;28;20051;-84
2022/12/31 00:40:56;;;;;;;52.17;7.63;;;10.10;99.90;;;;;;5113793;28;20039;-84
2022/12/31 00:43:22;;;;;;;44.08;6.85;;;10.20;99.90;;;;;;5112558;28;20054;-84
2022/12/31 00:45:47;;;;;;;48.40;7.80;;;10.20;99.90;;;;;;5112945;28;20046;-84
2022/12/31 00:48:13;;;;;;;41.45;7.35;;;10.00;99.90;;;;;;5114096;28;20047;-84
2022/12/31 00:50:39;;;;;;;51.30;6.78;;;10.10;99.90;;;;;;5112719;28;20050;-84
2022/12/31 00:53:04;;;;;;;39.70;6.75;;;10.10;99.90;;;;;;5112577;28;20043;-84
2022/12/31 00:55:30;;;;;;;38.13;5.35;;;10.10;99.90;;;;;;5112800;28;20151;-84
2022/12/31 00:57:55;;;;;;;36.28;6.65;;;10.10;99.90;;;;;;5112426;28;20497;-84
2022/12/31 01:00:21;;;;;;;36.45;7.22;;;10.00;99.90;;;;;;5112481;28;20499;-84
2022/12/31 01:02:47;;;;;;;45.20;7.70;;;10.00;99.90;;;;;;5112275;28;20051;-84
2022/12/31 01:05:13;;;;;;;45.88;9.55;;;10.00;99.90;;;;;;5113794;28;20059;-84
2022/12/31 01:07:38;;;;;;;61.05;10.77;;;10.10;99.90;;;;;;5113553;28;20043;-84
2022/12/31 01:10:04;;;;;;;48.80;9.27;;;10.10;99.90;;;;;;5113215;28;20078;-84
2022/12/31 01:12:30;;;;;;;39.45;8.00;;;10.00;99.90;;;;;;5116520;28;20055;-84
2022/12/31 01:14:56;;;;;;;44.67;7.40;;;10.10;99.90;;;;;;5116232;28;20040;-84
2022/12/31 01:17:21;;;;;;;50.75;8.55;;;10.00;99.90;;;;;;5115996;28;20052;-84
2022/12/31 01:19:47;;;;;;;52.15;8.43;;;10.00;99.90;;;;;;5116138;28;20565;-84
2022/12/31 01:22:12;;;;;;;44.58;7.50;;;10.00;99.90;;;;;;5116326;28;20043;-84
2022/12/31 01:24:38;;;;;;;50.78;8.45;;;10.10;99.90;;;;;;5134392;27;20394;-84
2022/12/31 01:27:04;;;;;;;49.28;7.93;;;10.00;99.90;;;;;;5119518;27;20059;-84
2022/12/31 01:29:29;;;;;;;54.95;7.90;;;10.00;99.90;;;;;;5153816;27;20402;-84
2022/12/31 01:31:55;;;;;;;44.92;7.65;;;10.10;99.90;;;;;;5119207;27;20104;-84
2022/12/31 01:34:21;;;;;;;64.72;10.48;;;9.90;99.90;;;;;;5119428;27;20070;-84
2022/12/31 01:36:47;;;;;;;34.85;6.75;;;9.90;99.90;;;;;;5153957;27;20058;-84
2022/12/31 01:39:12;;;;;;;64.38;7.82;;;10.00;99.90;;;;;;5119042;27;20453;-84
2022/12/31 01:41:43;;;;;;;45.78;7.15;;;10.00;99.90;;;;;;5119113;27;20108;-84
2022/12/31 01:44:12;;;;;;;49.85;5.60;;;10.10;99.90;;;;;;5118861;27;20486;-84
2022/12/31 01:46:45;;;;;;;53.33;8.38;;;10.00;99.90;;;;;;5119154;27;20035;-84
2022/12/31 01:49:22;;;;;;;50.20;8.02;;;10.10;99.90;;;;;;5119207;27;20059;-84
2022/12/31 01:52:03;;;;;;;52.58;6.97;;;10.10;99.90;;;;;;5119165;27;20129;-84
2022/12/31 01:54:32;;;;;;;52.47;8.88;;;10.10;99.90;;;;;;5118900;27;20084;-84
2022/12/31 01:56:58;;;;;;;49.78;7.55;;;10.10;99.90;;;;;;5118926;27;20049;-84
2022/12/31 01:59:26;;;;;;;43.95;6.03;;;10.10;99.90;;;;;;5118742;27;20043;-84
2022/12/31 02:01:52;;;;;;;58.90;7.50;;;10.10;99.90;;;;;;5118634;27;20054;-85
2022/12/31 02:04:18;;;;;;;53.20;8.10;;;10.10;99.90;;;;;;5153061;27;20047;-84
2022/12/31 02:07:01;;;;;;;55.78;8.20;;;10.10;99.90;;;;;;5118911;27;20111;-85
2022/12/31 02:09:27;;;;;;;57.13;8.50;;;10.10;99.90;;;;;;5118534;27;20131;-84
2022/12/31 02:11:53;;;;;;;51.15;8.50;;;10.10;99.90;;;;;;5118382;27;20382;-84
2022/12/31 02:14:24;;;;;;;58.47;9.15;;;9.90;99.90;;;;;;5153144;27;20482;-84
2022/12/31 02:16:58;;;;;;;52.63;7.38;;;9.90;99.90;;;;;;5118449;27;20490;-84
2022/12/31 02:19:42;;;;;;;51.80;7.47;;;9.90;99.90;;;;;;5118685;27;20054;-85
2022/12/31 02:22:46;;;;;;;46.72;7.90;;;10.00;99.90;;;;;;5118112;27;20047;-84
2022/12/31 02:25:31;;;;;;;49.15;7.40;;;10.00;99.90;;;;;;5118298;27;20054;-84
2022/12/31 02:28:12;;;;;;;48.00;7.32;;;10.00;99.90;;;;;;5118344;27;20068;-85
2022/12/31 02:30:40;;;;;;;41.47;8.40;;;10.00;99.90;;;;;;5118088;27;20047;-84
2022/12/31 02:33:34;;;;;;;62.22;7.50;;;10.10;99.90;;;;;;5118114;27;20051;-84
2022/12/31 02:36:10;;;;;;;45.10;6.82;;;10.10;99.90;;;;;;5118360;27;20521;-84
2022/12/31 02:38:41;;;;;;;45.03;7.00;;;10.00;99.90;;;;;;5118142;27;20047;-84
2022/12/31 02:41:48;;;;;;;39.45;6.95;;;9.90;99.90;;;;;;5118181;27;20051;-84
2022/12/31 02:44:18;;;;;;;46.05;8.32;;;9.90;99.90;;;;;;5117587;27;20518;-84
2022/12/31 02:47:06;;;;;;;55.42;6.97;;;9.90;99.90;;;;;;5117750;27;20118;-84
2022/12/31 02:49:56;;;;;;;45.13;6.88;;;9.90;99.90;;;;;;5117940;27;20047;-84
2022/12/31 02:52:38;;;;;;;40.05;7.22;;;9.90;99.90;;;;;;5136027;27;20067;-84
2022/12/31 02:55:26;;;;;;;42.30;7.45;;;10.00;99.90;;;;;;5117602;27;20044;-84
2022/12/31 02:58:09;;;;;;;47.05;8.93;;;9.80;99.90;;;;;;5136055;27;20053;-84
2022/12/31 03:03:28;;;;;;;35.25;8.50;;;9.80;99.90;;;;;;5117709;27;20061;-84
2022/12/31 03:05:55;;;;;;;46.58;9.65;;;9.80;99.90;;;;;;5117475;27;20490;-84
2022/12/31 03:08:26;;;;;;;42.63;10.02;;;10.00;99.90;;;;;;5151762;27;20058;-84
2022/12/31 03:10:52;;;;;;;40.80;8.32;;;9.80;99.90;;;;;;5135717;27;20046;-84
2022/12/31 03:13:20;;;;;;;48.60;8.90;;;9.80;99.90;;;;;;5135784;27;20420;-84
2022/12/31 03:15:45;;;;;;;51.28;10.38;;;9.80;99.90;;;;;;5117557;27;20054;-84
2022/12/31 03:18:14;;;;;;;52.58;9.90;;;9.80;99.90;;;;;;5116999;27;20122;-84
2022/12/31 03:23:35;;;;;;;45.22;9.68;;;9.80;99.90;;;;;;5135314;27;20055;-84
2022/12/31 03:26:08;;;;;;;43.30;9.90;;;9.80;99.90;;;;;;5117077;27;20047;-85
2022/12/31 03:28:34;;;;;;;46.08;10.65;;;9.80;99.90;;;;;;5117142;27;20051;-85
2022/12/31 03:31:01;;;;;;;57.28;10.88;;;9.80;99.90;;;;;;5135305;27;20047;-85
2022/12/31 03:33:35;;;;;;;53.70;10.25;;;9.80;99.90;;;;;;5134764;27;20039;-84
2022/12/31 03:36:05;;;;;;;48.08;13.07;;;9.80;99.90;;;;;;5135313;27;20438;-84
2022/12/31 03:38:31;;;;;;;46.72;13.32;;;9.60;99.90;;;;;;5116818;27;20043;-84
2022/12/31 03:40:56;;;;;;;46.15;12.60;;;9.80;99.90;;;;;;5135541;27;20043;-84
2022/12/31 03:43:22;;;;;;;58.30;12.48;;;9.70;99.90;;;;;;5116842;27;20039;-85
2022/12/31 03:45:50;;;;;;;46.25;13.88;;;9.70;99.90;;;;;;5116701;27;20087;-84
2022/12/31 03:48:16;;;;;;;55.78;13.18;;;9.70;99.90;;;;;;5116634;27;20039;-84
2022/12/31 03:50:42;;;;;;;53.55;14.35;;;9.60;99.90;;;;;;5116956;27;20050;-85
2022/12/31 03:53:08;;;;;;;52.35;15.40;;;9.70;99.90;;;;;;5116857;27;20142;-84
2022/12/31 03:55:34;;;;;;;54.47;16.00;;;9.70;99.90;;;;;;5116418;27;20391;-84
2022/12/31 03:58:00;;;;;;;51.53;13.68;;;9.70;99.90;;;;;;5116464;27;20475;-84
2022/12/31 04:00:26;;;;;;;57.33;15.35;;;9.60;99.90;;;;;;5116477;27;20039;-85
2022/12/31 04:02:52;;;;;;;50.35;13.07;;;9.60;99.90;;;;;;5134887;27;20520;-85
2022/12/31 04:05:18;;;;;;;49.17;13.93;;;9.60;99.90;;;;;;5116508;27;20047;-84
2022/12/31 04:07:44;;;;;;;47.42;11.52;;;9.70;99.90;;;;;;5116730;27;20482;-84
2022/12/31 04:10:12;;;;;;;41.92;8.93;;;9.70;99.90;;;;;;5150576;27;20402;-84
2022/12/31 04:12:39;;;;;;;35.70;9.52;;;9.70;99.90;;;;;;5116335;27;20043;-84
2022/12/31 04:15:06;;;;;;;33.30;7.22;;;9.70;99.90;;;;;;5116362;27;20467;-84
2022/12/31 04:17:32;;;;;;;31.23;8.38;;;9.60;99.90;;;;;;5116512;27;20092;-84
2022/12/31 04:19:57;;;;;;;35.58;7.20;;;9.60;99.90;;;;;;5116378;28;20043;-84
2022/12/31 04:22:23;;;;;;;34.30;7.60;;;9.70;99.90;;;;;;5116290;28;20041;-84
2022/12/31 04:24:49;;;;;;;37.45;8.68;;;9.60;99.90;;;;;;5115944;28;20083;-84
2022/12/31 04:27:14;;;;;;;47.53;7.15;;;9.60;99.90;;;;;;5150734;27;20050;-84
2022/12/31 04:29:40;;;;;;;41.38;7.00;;;9.70;99.90;;;;;;5116384;28;20051;-84
2022/12/31 04:32:07;;;;;;;41.10;6.35;;;9.70;99.90;;;;;;5116167;28;20043;-85
2022/12/31 04:34:33;;;;;;;31.58;5.75;;;9.70;99.90;;;;;;5134515;28;20513;-85
2022/12/31 04:36:59;;;;;;;45.67;6.35;;;9.60;99.90;;;;;;5115889;28;20043;-85
2022/12/31 04:39:28;;;;;;;32.35;5.60;;;9.70;99.90;;;;;;5151100;27;20112;-85
2022/12/31 04:41:54;;;;;;;32.85;5.07;;;9.70;99.90;;;;;;5150612;27;20125;-85
2022/12/31 04:44:20;;;;;;;36.50;7.00;;;9.60;99.90;;;;;;5115891;28;20582;-85
2022/12/31 04:46:45;;;;;;;31.73;6.93;;;9.60;99.90;;;;;;5120049;27;20046;-85
2022/12/31 04:49:11;;;;;;;36.38;7.32;;;9.60;99.90;;;;;;5120289;27;20051;-85
2022/12/31 04:51:37;;;;;;;35.35;6.63;;;9.50;99.90;;;;;;5138598;27;20070;-85
2022/12/31 04:54:05;;;;;;;34.85;6.93;;;9.60;99.90;;;;;;5120144;27;20050;-84
2022/12/31 04:56:31;;;;;;;27.17;6.90;;;9.60;99.90;;;;;;5138331;27;20043;-85
2022/12/31 04:58:57;;;;;;;36.20;5.22;;;9.60;99.90;;;;;;5138379;27;20043;-84
2022/12/31 05:01:23;;;;;;;25.40;5.80;;;9.60;99.90;;;;;;5154369;27;20046;-85
2022/12/31 05:03:50;;;;;;;22.30;5.18;;;9.50;99.90;;;;;;5120029;27;20061;-84
2022/12/31 05:06:20;;;;;;;35.28;5.05;;;9.60;99.90;;;;;;5119657;27;20047;-85
2022/12/31 05:08:47;;;;;;;27.77;5.28;;;9.50;99.90;;;;;;5154337;27;20043;-85
2022/12/31 05:13:48;;;;;;;31.92;5.20;;;9.50;99.90;;;;;;5577691;22;20042;-85
2022/12/31 05:16:14;;;;;;;19.60;4.45;;;9.60;99.90;;;;;;5035698;28;20115;-84
2022/12/31 05:18:42;;;;;;;28.27;5.70;;;9.50;99.90;;;;;;5035703;28;20045;-84
2022/12/31 05:21:14;;;;;;;24.88;4.95;;;9.50;99.90;;;;;;5035686;28;20556;-85
2022/12/31 05:23:39;;;;;;;37.20;5.45;;;9.50;99.90;;;;;;5036751;28;20041;-85
2022/12/31 05:26:05;;;;;;;25.83;5.18;;;9.40;99.90;;;;;;5035436;28;20061;-85
2022/12/31 05:28:31;;;;;;;23.15;5.70;;;9.40;99.90;;;;;;5035242;28;20048;-85
2022/12/31 05:30:57;;;;;;;25.17;6.80;;;9.40;99.90;;;;;;5035733;28;20049;-84
2022/12/31 05:33:23;;;;;;;38.97;6.47;;;9.40;99.90;;;;;;5035365;28;20103;-85
2022/12/31 05:35:49;;;;;;;40.25;6.38;;;9.50;99.90;;;;;;5035172;28;20037;-85
2022/12/31 05:38:14;;;;;;;33.58;7.00;;;9.40;99.90;;;;;;5035453;28;20056;-85
2022/12/31 05:40:40;;;;;;;41.92;8.20;;;9.50;99.90;;;;;;5034887;28;20416;-85
2022/12/31 05:43:06;;;;;;;37.75;8.88;;;9.50;99.90;;;;;;5035013;28;20366;-85
2022/12/31 05:45:32;;;;;;;34.80;10.07;;;9.40;99.90;;;;;;5035112;28;20050;-85
2022/12/31 05:47:58;;;;;;;43.08;10.20;;;9.40;99.90;;;;;;5035123;28;20046;-85
2022/12/31 05:50:23;;;;;;;41.05;11.48;;;9.40;99.90;;;;;;5035067;28;20444;-85
2022/12/31 05:52:49;;;;;;;28.10;9.57;;;9.40;99.90;;;;;;5035127;28;20359;-85
2022/12/31 05:55:15;;;;;;;41.40;11.00;;;9.50;99.90;;;;;;5034739;28;20436;-85
2022/12/31 05:57:40;;;;;;;35.55;9.27;;;9.50;99.90;;;;;;5034554;28;20049;-85
2022/12/31 06:00:07;;;;;;;36.90;11.10;;;9.40;99.90;;;;;;5034797;28;20038;-85
2022/12/31 06:02:33;;;;;;;40.65;11.05;;;9.50;99.90;;;;;;5035485;28;20049;-84
2022/12/31 06:04:59;;;;;;;43.20;11.65;;;9.50;99.90;;;;;;5034506;28;20123;-84
2022/12/31 06:07:24;;;;;;;49.08;11.48;;;9.40;99.90;;;;;;5034607;28;20473;-84
2022/12/31 06:09:50;;;;;;;40.15;9.85;;;9.40;99.90;;;;;;5034760;28;20051;-84
2022/12/31 06:12:15;;;;;;;33.53;8.98;;;9.50;99.90;;;;;;5036034;28;20432;-84
2022/12/31 06:14:42;;;;;;;38.97;9.63;;;9.40;99.90;;;;;;5034252;28;20046;-84
2022/12/31 06:17:08;;;;;;;30.20;8.63;;;9.50;99.90;;;;;;5034359;28;20103;-85
2022/12/31 06:19:33;;;;;;;31.27;7.32;;;9.30;99.90;;;;;;5034348;28;20041;-85
2022/12/31 06:21:59;;;;;;;33.78;7.03;;;9.40;99.90;;;;;;5034604;28;20095;-85
2022/12/31 06:24:24;;;;;;;26.63;6.90;;;9.20;99.90;;;;;;5035728;28;20041;-85
2022/12/31 06:26:50;;;;;;;16.58;3.58;;;9.20;99.90;;;;;;5034978;28;20114;-85
2022/12/31 06:29:16;;;;;;;20.75;4.30;;;9.10;99.90;;;;;;5034586;28;20504;-85
2022/12/31 06:31:42;;;;;;;10.18;2.53;;;9.20;99.90;;;;;;5034222;28;20042;-85
2022/12/31 06:34:08;;;;;;;18.15;3.90;;;9.00;99.90;;;;;;5034677;28;20056;-85
2022/12/31 06:36:34;;;;;;;14.43;2.70;;;9.10;99.90;;;;;;5034149;28;20037;-84
2022/12/31 06:39:01;;;;;;;15.82;3.53;;;8.90;99.90;;;;;;5034223;28;20107;-85
2022/12/31 06:41:26;;;;;;;17.85;2.33;;;9.00;99.90;;;;;;5034029;28;20046;-85
2022/12/31 06:43:52;;;;;;;17.00;2.80;;;9.00;99.90;;;;;;5034067;28;20048;-85
2022/12/31 06:46:18;;;;;;;14.80;2.72;;;9.00;99.90;;;;;;5033847;28;20049;-85
2022/12/31 06:48:44;;;;;;;16.10;2.50;;;9.00;99.90;;;;;;5033793;28;20056;-85
2022/12/31 06:51:13;;;;;;;18.70;4.22;;;8.90;99.90;;;;;;5034242;28;20555;-85
2022/12/31 06:53:39;;;;;;;23.73;3.72;;;8.90;99.90;;;;;;5034089;28;20042;-85
2022/12/31 06:56:07;;;;;;;11.25;3.40;;;9.00;99.90;;;;;;5033875;28;20365;-85
2022/12/31 06:58:33;;;;;;;9.45;3.17;;;9.00;99.90;;;;;;5033973;28;20045;-85
2022/12/31 07:01:25;;;;;;;17.15;4.70;;;9.00;99.90;;;;;;5033998;28;20092;-87
2022/12/31 07:04:36;;;;;;;14.75;3.33;;;9.00;99.90;;;;;;5033613;28;20137;-85
2022/12/31 07:07:25;;;;;;;19.00;4.10;;;8.90;99.90;;;;;;5033587;28;20053;-85
2022/12/31 07:10:28;;;;;;;17.25;4.45;;;9.00;99.90;;;;;;5033392;28;20044;-85
2022/12/31 07:13:11;;;;;;;17.10;3.92;;;9.00;99.90;;;;;;5033293;28;20057;-85
2022/12/31 07:16:07;;;;;;;22.02;6.05;;;9.10;99.90;;;;;;5034467;28;20436;-86
2022/12/31 07:18:56;;;;;;;30.67;7.80;;;9.10;99.90;;;;;;5033214;28;20128;-85
2022/12/31 07:21:37;;;;;;;26.88;7.68;;;9.20;99.90;;;;;;5035232;28;20076;-86
2022/12/31 07:24:06;;;;;;;38.80;11.55;;;9.20;99.90;;;;;;5036756;28;20054;-86
2022/12/31 07:27:08;;;;;;;31.02;10.00;;;9.30;99.90;;;;;;5036140;28;20049;-86
2022/12/31 07:30:13;;;;;;;28.92;10.05;;;9.30;99.90;;;;;;5035378;28;20052;-86
2022/12/31 07:32:53;;;;;;;33.17;10.40;;;9.40;99.90;;;;;;5036486;28;20056;-86
2022/12/31 07:35:46;;;;;;;37.63;11.45;;;9.40;99.90;;;;;;5037595;28;20042;-86
2022/12/31 07:38:11;;;;;;;37.40;12.68;;;9.40;99.90;;;;;;5033265;28;20084;-86
2022/12/31 07:41:03;;;;;;;25.35;11.00;;;9.30;99.90;;;;;;5015698;28;20045;-86
2022/12/31 07:43:59;;;;;;;29.02;10.57;;;9.40;99.90;;;;;;5016463;28;20042;-86
2022/12/31 07:46:49;;;;;;;28.15;10.10;;;9.40;99.90;;;;;;5018623;28;20049;-86
2022/12/31 07:49:16;;;;;;;26.88;9.85;;;9.40;99.90;;;;;;5015753;28;20061;-85
2022/12/31 07:51:42;;;;;;;23.80;10.60;;;9.30;99.90;;;;;;5015474;28;20065;-86
2022/12/31 07:54:07;;;;;;;27.27;10.32;;;9.40;99.90;;;;;;5015302;28;20389;-85
2022/12/31 07:56:33;;;;;;;24.52;9.80;;;9.30;99.90;;;;;;5013515;28;20042;-85
2022/12/31 07:59:04;;;;;;;29.75;9.73;;;9.30;99.90;;;;;;5013116;28;20049;-85
2022/12/31 08:01:40;;;;;;;27.48;11.05;;;9.30;99.90;;;;;;5012881;28;20402;-85
2022/12/31 08:04:17;;;;;;;30.55;11.40;;;9.40;99.90;;;;;;5012978;28;20067;-85
2022/12/31 08:07:08;;;;;;;31.30;10.75;;;9.30;99.90;;;;;;5013888;28;20085;-86
2022/12/31 08:09:59;;;;;;;30.23;10.88;;;9.30;99.90;;;;;;5016450;28;20116;-86
2022/12/31 08:12:29;;;;;;;31.30;11.05;;;9.30;99.90;;;;;;5014257;28;20481;-86
2022/12/31 08:14:55;;;;;;;30.70;11.32;;;9.40;99.90;;;;;;5013886;28;20046;-85
2022/12/31 08:17:21;;;;;;;27.30;10.55;;;9.40;99.90;;;;;;5012629;28;20046;-85
2022/12/31 08:19:48;;;;;;;26.90;10.30;;;9.40;99.90;;;;;;5012568;28;20058;-85
2022/12/31 08:22:37;;;;;;;26.48;10.07;;;9.40;99.90;;;;;;5012528;28;20053;-85
2022/12/31 08:25:21;;;;;;;27.50;9.90;;;9.50;99.90;;;;;;5013895;28;20078;-85
2022/12/31 08:28:16;;;;;;;33.63;9.75;;;9.40;99.90;;;;;;5012405;28;20046;-84
2022/12/31 08:31:15;;;;;;;36.00;11.45;;;9.40;99.90;;;;;;5012668;28;20053;-84
2022/12/31 08:33:50;;;;;;;27.80;10.50;;;9.30;99.90;;;;;;5013682;28;20046;-84
2022/12/31 08:36:30;;;;;;;29.60;10.38;;;9.30;99.90;;;;;;5012546;28;20046;-84
2022/12/31 08:39:06;;;;;;;31.02;11.50;;;9.30;99.90;;;;;;5012294;28;20065;-84
2022/12/31 08:41:44;;;;;;;32.38;11.32;;;9.30;99.90;;;;;;5012784;28;20428;-85
2022/12/31 08:44:22;;;;;;;41.30;15.70;;;9.30;99.90;;;;;;5011956;28;20077;-85
2022/12/31 08:47:21;;;;;;;30.60;11.65;;;9.30;99.90;;;;;;5012779;28;20038;-85
2022/12/31 08:49:47;;;;;;;33.60;12.32;;;9.40;99.90;;;;;;5013688;28;20042;-85
2022/12/31 08:52:22;;;;;;;40.15;14.68;;;9.40;99.90;;;;;;5012389;28;20472;-85
2022/12/31 08:54:48;;;;;;;30.90;13.05;;;9.50;99.90;;;;;;5012982;28;20133;-86
2022/12/31 08:57:38;;;;;;;33.50;13.48;;;9.60;99.90;;;;;;5012518;28;20129;-86
2022/12/31 09:00:12;;;;;;;32.55;13.10;;;9.70;99.90;;;;;;5013503;28;20541;-85
2022/12/31 09:02:44;;;;;;;35.25;13.93;;;9.90;99.90;;;;;;5012691;28;20077;-86
2022/12/31 09:05:29;;;;;;;33.57;14.43;;;9.90;99.90;;;;;;5012082;28;20041;-85
2022/12/31 09:08:29;;;;;;;30.88;13.40;;;10.10;99.90;;;;;;5012059;28;20325;-85
2022/12/31 09:11:13;;;;;;;26.58;11.70;;;10.30;99.90;;;;;;5008907;28;20133;-86
2022/12/31 09:14:16;;;;;;;34.38;13.27;;;10.40;99.90;;;;;;5011811;28;20140;-85
2022/12/31 09:16:51;;;;;;;28.45;13.15;;;10.60;99.90;;;;;;5011992;28;20129;-85
2022/12/31 09:19:16;;;;;;;28.73;13.40;;;10.50;99.90;;;;;;5012160;28;20096;-84
2022/12/31 09:21:45;;;;;;;31.55;12.88;;;10.70;99.90;;;;;;5012187;28;20038;-84
2022/12/31 09:24:12;;;;;;;35.63;13.15;;;10.70;99.90;;;;;;5012064;28;20095;-84
2022/12/31 09:27:09;;;;;;;33.90;12.88;;;10.70;99.90;;;;;;5011993;28;20552;-84
2022/12/31 09:29:41;;;;;;;30.23;11.20;;;10.80;99.90;;;;;;5011728;28;20053;-84
2022/12/31 09:32:32;;;;;;;33.20;11.40;;;10.80;99.90;;;;;;5014170;28;20379;-84
2022/12/31 09:35:14;;;;;;;32.30;11.73;;;10.90;99.90;;;;;;5015190;28;20134;-85
2022/12/31 09:37:49;;;;;;;28.42;10.98;;;10.90;99.90;;;;;;5015312;28;20042;-85
2022/12/31 09:40:38;;;;;;;31.15;9.40;;;11.00;99.90;;;;;;5015149;28;20045;-85
2022/12/31 09:43:34;;;;;;;26.17;8.95;;;11.00;99.90;;;;;;5007119;28;20061;-85
2022/12/31 09:46:30;;;;;;;21.98;7.70;;;11.00;99.90;;;;;;5015012;28;20537;-84
2022/12/31 09:49:42;;;;;;;25.13;7.82;;;11.00;99.90;;;;;;5015079;28;20042;-84
2022/12/31 09:52:32;;;;;;;25.73;8.95;;;11.10;99.90;;;;;;5015121;28;20053;-84
2022/12/31 09:55:00;;;;;;;30.85;8.85;;;11.10;99.90;;;;;;5015149;28;20049;-85
2022/12/31 09:57:47;;;;;;;25.40;9.73;;;11.10;99.90;;;;;;5015123;28;20079;-87
2022/12/31 10:00:37;;;;;;;25.45;9.00;;;11.10;99.90;;;;;;5015982;28;20401;-84
2022/12/31 10:03:32;;;;;;;33.88;9.15;;;11.10;99.90;;;;;;5016680;28;20056;-83
2022/12/31 10:06:00;;;;;;;22.35;7.07;;;11.10;99.90;;;;;;5004819;28;20061;-83
2022/12/31 10:09:00;;;;;;;29.27;7.63;;;11.10;99.90;;;;;;5014343;28;20077;-83
2022/12/31 10:11:50;;;;;;;20.60;6.68;;;11.20;99.90;;;;;;5014578;28;20486;-84
2022/12/31 10:14:43;;;;;;;19.92;4.75;;;11.30;99.90;;;;;;5014094;28;20066;-84
2022/12/31 10:17:32;;;;;;;20.92;5.15;;;11.20;99.90;;;;;;5014467;28;20052;-83
2022/12/31 10:20:30;;;;;;;25.10;5.85;;;11.30;99.90;;;;;;4978283;28;20041;-82
2022/12/31 10:23:01;;;;;;;29.65;5.47;;;11.50;99.90;;;;;;5014242;28;20058;-81
2022/12/31 10:25:42;;;;;;;18.05;4.68;;;11.50;99.90;;;;;;5014305;28;20164;-83
2022/12/31 10:28:25;;;;;;;23.30;5.82;;;11.50;99.90;;;;;;5015674;28;20141;-83
2022/12/31 10:30:57;;;;;;;;;;;11.50;99.90;;;;;;5014766;28;20512;-90
2022/12/31 10:33:39;;;;;;;23.30;3.92;;;11.50;99.90;;;;;;5014434;28;19925;-82
2022/12/31 10:36:14;;;;;;;22.25;3.28;;;11.60;99.90;;;;;;5014320;28;20152;-82
2022/12/31 10:38:55;;;;;;;27.50;4.70;;;11.60;99.90;;;;;;5014246;28;20057;-82
2022/12/31 10:42:05;;;;;;;27.48;3.75;;;11.70;99.90;;;;;;5013656;28;20049;-83
2022/12/31 10:45:00;;;;;;;20.95;4.03;;;11.70;99.90;;;;;;4997362;28;20135;-83
2022/12/31 10:47:53;;;;;;;38.03;5.43;;;11.60;99.90;;;;;;5013658;28;20046;-83
2022/12/31 10:50:22;;;;;;;34.80;5.10;;;11.80;99.90;;;;;;5013727;28;20237;-83
2022/12/31 10:53:03;;;;;;;38.28;5.00;;;11.70;99.90;;;;;;5013520;28;20128;-84
2022/12/31 10:56:06;;;;;;;41.47;5.30;;;11.80;99.90;;;;;;5013830;28;20052;-84
2022/12/31 10:58:54;;;;;;;36.35;5.15;;;12.00;99.90;;;;;;5013550;28;20046;-85
2022/12/31 11:01:29;;;;;;;35.25;4.30;;;12.10;99.90;;;;;;5013732;28;20046;-86
2022/12/31 11:04:34;;;;;;;32.65;3.58;;;11.90;99.90;;;;;;5013326;28;20498;-85
2022/12/31 11:07:47;;;;;;;39.60;5.65;;;12.10;99.90;;;;;;5013738;28;20502;-84
2022/12/31 11:10:37;;;;;;;37.60;4.55;;;12.20;99.90;;;;;;4938784;29;20402;-83
2022/12/31 11:13:26;;;;;;;22.38;4.10;;;12.40;99.90;;;;;;4937961;29;20130;-84
2022/12/31 11:16:01;;;;;;;24.88;3.75;;;12.40;99.90;;;;;;4996917;28;20058;-83
2022/12/31 11:18:39;;;;;;;32.28;5.72;;;12.40;99.90;;;;;;5013604;28;20049;-83
2022/12/31 11:21:24;;;;;;;29.20;4.10;;;12.30;99.90;;;;;;5013090;28;20041;-82
2022/12/31 11:24:16;;;;;;;35.28;4.90;;;12.50;99.90;;;;;;5013273;28;20053;-83
2022/12/31 11:27:07;;;;;;;31.73;4.63;;;12.40;99.90;;;;;;5013307;28;20120;-83
2022/12/31 11:29:57;;;;;;;42.25;4.95;;;12.30;99.90;;;;;;5013286;28;20073;-83
2022/12/31 11:32:49;;;;;;;30.15;3.65;;;12.40;99.90;;;;;;5014329;28;20393;-85
2022/12/31 11:35:31;;;;;;;37.42;5.10;;;12.50;99.90;;;;;;5013774;28;20501;-84
2022/12/31 11:38:28;;;;;;;42.38;5.35;;;12.40;99.90;;;;;;5013200;28;20056;-83
2022/12/31 11:41:12;;;;;;;29.02;3.97;;;12.30;99.90;;;;;;5014269;28;20441;-82
2022/12/31 11:43:42;;;;;;;36.70;4.10;;;12.40;99.90;;;;;;5019572;28;20079;-85
2022/12/31 11:46:43;;;;;;;36.67;4.03;;;12.20;99.90;;;;;;5043829;28;20057;-84
2022/12/31 11:49:30;;;;;;;42.53;5.45;;;12.30;99.90;;;;;;4992779;28;20054;-84
2022/12/31 11:52:35;;;;;;;39.67;4.90;;;12.20;99.90;;;;;;5030032;28;20065;-85
2022/12/31 11:55:29;;;;;;;32.58;4.20;;;12.10;99.90;;;;;;5032206;28;20057;-85
2022/12/31 11:58:00;;;;;;;33.58;4.03;;;12.20;99.90;;;;;;5032521;28;20045;-83
2022/12/31 12:00:29;;;;;;;36.08;5.38;;;12.20;99.90;;;;;;5032508;28;20493;-83
2022/12/31 12:03:06;;;;;;;37.83;5.68;;;12.20;99.90;;;;;;5032240;28;20071;-83
2022/12/31 12:05:33;;;;;;;40.85;5.15;;;12.30;99.90;;;;;;5032147;28;20077;-83
2022/12/31 12:08:00;;;;;;;27.33;3.67;;;12.40;99.90;;;;;;5032069;28;20042;-83
2022/12/31 12:10:29;;;;;;;34.42;5.38;;;12.40;99.90;;;;;;5032051;28;20452;-84
2022/12/31 12:12:56;;;;;;;28.05;4.13;;;12.30;99.90;;;;;;5032144;28;20072;-84
2022/12/31 12:15:34;;;;;;;33.05;4.38;;;12.40;99.90;;;;;;5032117;28;20115;-83
2022/12/31 12:18:07;;;;;;;31.08;6.13;;;12.40;99.90;;;;;;5032497;28;20481;-86
2022/12/31 12:20:37;;;;;;;28.35;4.15;;;12.40;99.90;;;;;;5034054;28;20124;-86
2022/12/31 12:23:20;;;;;;;25.55;4.47;;;12.30;99.90;;;;;;5032351;28;20049;-83
2022/12/31 12:25:45;;;;;;;;;;;12.30;99.90;;;;;;5032305;28;20053;-84
2022/12/31 12:28:17;;;;;;;23.65;3.78;;;12.30;99.90;;;;;;5032146;28;19923;-85
2022/12/31 12:30:45;;;;;;;26.17;5.63;;;12.40;99.90;;;;;;5031918;28;20046;-84
2022/12/31 12:33:16;;;;;;;35.03;4.43;;;12.60;99.90;;;;;;5032101;28;20041;-85
2022/12/31 12:35:42;;;;;;;29.83;4.57;;;12.30;99.90;;;;;;5033533;28;20072;-85
2022/12/31 12:38:22;;;;;;;27.10;3.63;;;12.40;99.90;;;;;;5031742;28;20053;-84
2022/12/31 12:40:57;;;;;;;24.73;4.18;;;12.60;99.90;;;;;;5031981;28;20041;-85
2022/12/31 12:43:28;;;;;;;33.28;4.93;;;12.30;99.90;;;;;;5031970;28;20072;-85
2022/12/31 12:46:01;;;;;;;38.13;5.50;;;12.40;99.90;;;;;;5031747;28;20506;-82
2022/12/31 12:48:43;;;;;;;33.50;4.55;;;12.50;99.90;;;;;;5031921;28;20057;-82
2022/12/31 12:51:34;;;;;;;28.58;4.95;;;12.50;99.90;;;;;;5031654;28;20107;-82
2022/12/31 12:54:15;;;;;;;29.95;4.95;;;12.50;99.90;;;;;;5031506;28;20092;-84
2022/12/31 12:56:55;;;;;;;29.50;4.20;;;12.30;99.90;;;;;;5031967;28;20081;-83
2022/12/31 12:59:39;;;;;;;31.33;4.40;;;12.40;99.90;;;;;;5032130;28;20053;-81
2022/12/31 13:02:21;;;;;;;32.88;5.55;;;12.40;99.90;;;;;;5031666;28;20045;-87
2022/12/31 13:05:03;;;;;;;30.08;4.53;;;12.50;99.90;;;;;;5031594;28;20056;-86
2022/12/31 13:08:07;;;;;;;31.92;5.07;;;12.30;99.90;;;;;;5035009;28;20409;-83
2022/12/31 13:10:48;;;;;;;30.80;4.65;;;12.30;99.90;;;;;;5035482;28;20401;-83
2022/12/31 13:13:36;;;;;;;37.33;7.93;;;12.30;99.90;;;;;;5035166;28;20069;-83
2022/12/31 13:16:06;;;;;;;34.25;6.63;;;12.30;99.90;;;;;;5035359;28;20128;-84
2022/12/31 13:18:47;;;;;;;30.08;5.32;;;12.40;99.90;;;;;;5035493;28;20083;-86
2022/12/31 13:21:50;;;;;;;36.42;5.53;;;12.20;99.90;;;;;;5035085;28;20042;-85
2022/12/31 13:24:47;;;;;;;40.08;6.47;;;12.20;99.90;;;;;;5012257;28;20188;-86
2022/12/31 13:27:39;;;;;;;31.92;6.45;;;12.30;99.90;;;;;;5035299;28;20497;-87
2022/12/31 13:30:15;;;;;;;38.50;5.30;;;12.30;99.90;;;;;;5032698;28;20441;-86